Time;durP1;ratioP1;P1;durP2;ratioP2;P2;SDS_P1;SDS_P2;PMS_P1;PMS_P2;Temp;Humidity;BMP_temperature;BMP_pressure;BME280_temperature;BME280_humidity;BME280_pressure;Samples;Min_cycle;Max_cycle;Signal;HPM_P1;HPM_P2
2023/05/20 00:00:33;;;;;;;12.18;6.43;;;14.10;1.00;;;;;;5058763;28;20060;-67
2023/05/20 00:03:02;;;;;;;13.00;6.40;;;14.10;1.00;;;;;;5041257;28;20040;-67
2023/05/20 00:05:28;;;;;;;12.23;6.32;;;14.10;1.00;;;;;;5057710;28;20041;-66
2023/05/20 00:07:54;;;;;;;8.35;6.45;;;14.00;1.00;;;;;;5057846;28;20123;-67
2023/05/20 00:10:20;;;;;;;9.70;5.85;;;13.90;1.00;;;;;;5058495;28;20404;-66
2023/05/20 00:12:46;;;;;;;10.93;5.93;;;13.90;1.00;;;;;;5058458;28;20409;-66
2023/05/20 00:15:12;;;;;;;10.40;6.40;;;13.90;1.00;;;;;;5058425;28;20363;-67
2023/05/20 00:17:37;;;;;;;15.13;6.78;;;13.70;1.00;;;;;;5058251;28;20304;-65
2023/05/20 00:20:04;;;;;;;13.60;6.03;;;13.70;1.00;;;;;;5058326;28;20116;-66
2023/05/20 00:22:30;;;;;;;13.18;5.80;;;13.70;1.00;;;;;;5058285;28;20087;-67
2023/05/20 00:24:56;;;;;;;11.93;5.88;;;13.60;1.00;;;;;;5074282;28;20180;-66
2023/05/20 00:27:22;;;;;;;7.95;5.25;;;13.60;1.00;;;;;;5058152;28;20053;-66
2023/05/20 00:29:48;;;;;;;10.23;5.40;;;13.60;1.00;;;;;;5058063;28;20032;-66
2023/05/20 00:32:14;;;;;;;8.77;4.93;;;13.60;1.00;;;;;;5058141;28;20468;-66
2023/05/20 00:34:42;;;;;;;8.32;4.60;;;13.50;1.00;;;;;;5058068;28;20036;-68
2023/05/20 00:37:09;;;;;;;10.20;4.40;;;13.50;1.00;;;;;;5057273;28;20052;-65
2023/05/20 00:39:35;;;;;;;6.90;4.78;;;13.50;1.00;;;;;;5057252;28;20025;-66
2023/05/20 00:42:02;;;;;;;6.60;4.63;;;13.40;1.00;;;;;;5057227;28;20024;-65
2023/05/20 00:44:28;;;;;;;7.00;4.50;;;13.40;1.00;;;;;;5057086;28;20040;-66
2023/05/20 00:46:54;;;;;;;7.47;4.15;;;13.50;1.00;;;;;;5057840;28;20068;-66
2023/05/20 00:49:22;;;;;;;8.02;4.38;;;13.40;1.00;;;;;;5058293;28;20033;-66
2023/05/20 00:51:48;;;;;;;8.90;4.78;;;13.30;1.00;;;;;;5057960;28;20033;-65
2023/05/20 00:54:15;;;;;;;5.55;3.63;;;13.30;1.00;;;;;;5056847;28;20396;-66
2023/05/20 00:56:41;;;;;;;5.47;3.53;;;13.30;1.00;;;;;;5039976;28;20071;-66
2023/05/20 00:59:08;;;;;;;7.68;3.80;;;13.40;1.00;;;;;;5056740;28;20350;-66
2023/05/20 01:01:34;;;;;;;6.63;3.58;;;13.40;1.00;;;;;;5056838;28;20290;-66
2023/05/20 01:04:00;;;;;;;14.93;3.97;;;13.50;1.00;;;;;;5040038;28;20135;-65
2023/05/20 01:06:27;;;;;;;7.07;3.22;;;13.40;1.00;;;;;;5057558;28;20438;-67
2023/05/20 01:08:53;;;;;;;7.15;3.95;;;13.40;1.00;;;;;;5056705;28;20120;-66
2023/05/20 01:11:32;;;;;;;6.47;3.63;;;13.40;1.00;;;;;;5040173;28;20041;-68
2023/05/20 01:14:02;;;;;;;6.63;3.60;;;13.20;1.00;;;;;;5056688;28;20037;-67
2023/05/20 01:16:30;;;;;;;13.10;3.60;;;13.20;1.00;;;;;;5056656;28;20044;-68
2023/05/20 01:18:57;;;;;;;4.15;3.00;;;13.20;1.00;;;;;;5056444;28;20078;-66
2023/05/20 01:21:26;;;;;;;7.13;3.35;;;13.20;1.00;;;;;;5057220;28;20132;-66
2023/05/20 01:23:52;;;;;;;5.78;3.42;;;13.20;1.00;;;;;;5056380;28;20029;-65
2023/05/20 01:26:18;;;;;;;4.13;2.75;;;13.20;1.00;;;;;;5039986;28;20045;-66
2023/05/20 01:28:45;;;;;;;7.97;3.40;;;13.00;1.00;;;;;;5057211;28;20033;-66
2023/05/20 01:31:19;;;;;;;8.30;3.63;;;13.10;1.00;;;;;;5056399;28;20124;-67
2023/05/20 01:33:47;;;;;;;6.68;3.63;;;13.10;1.00;;;;;;5056998;28;20044;-66
2023/05/20 01:36:14;;;;;;;6.57;3.40;;;13.10;1.00;;;;;;5056489;28;20041;-68
2023/05/20 01:38:41;;;;;;;8.65;3.58;;;13.00;1.00;;;;;;5056244;28;20044;-66
2023/05/20 01:41:07;;;;;;;5.47;3.13;;;13.00;1.00;;;;;;5056365;28;20029;-66
2023/05/20 01:43:34;;;;;;;11.07;3.10;;;12.90;1.00;;;;;;5056233;28;20033;-66
2023/05/20 01:46:01;;;;;;;7.18;3.17;;;13.00;1.00;;;;;;5056218;28;20125;-67
2023/05/20 01:48:27;;;;;;;9.60;3.45;;;12.90;1.00;;;;;;5056433;28;20143;-66
2023/05/20 01:50:53;;;;;;;4.75;3.22;;;12.90;1.00;;;;;;5056916;28;20341;-67
2023/05/20 01:53:19;;;;;;;8.65;3.90;;;12.80;1.00;;;;;;5057102;28;20036;-65
2023/05/20 01:55:45;;;;;;;6.10;2.92;;;12.70;1.00;;;;;;5056024;28;20115;-65
2023/05/20 01:58:11;;;;;;;8.52;3.55;;;12.80;1.00;;;;;;5055974;28;20094;-66
2023/05/20 02:00:36;;;;;;;7.32;3.53;;;12.80;1.00;;;;;;5055969;28;20035;-66
2023/05/20 02:03:03;;;;;;;9.00;3.75;;;12.80;1.00;;;;;;5055959;28;20033;-65
2023/05/20 02:05:29;;;;;;;6.43;3.20;;;12.80;1.00;;;;;;5055810;28;20097;-66
2023/05/20 02:07:55;;;;;;;8.73;3.30;;;12.70;1.00;;;;;;5039395;28;20040;-65
2023/05/20 02:10:22;;;;;;;8.13;3.38;;;12.70;1.00;;;;;;5059139;28;20037;-66
2023/05/20 02:12:48;;;;;;;6.45;3.65;;;12.70;1.00;;;;;;5060841;28;20041;-66
2023/05/20 02:15:15;;;;;;;6.18;3.88;;;12.60;1.00;;;;;;5060143;28;20116;-68
2023/05/20 02:17:42;;;;;;;9.00;3.95;;;12.60;1.00;;;;;;5060528;28;20057;-65
2023/05/20 02:20:09;;;;;;;6.35;3.28;;;12.60;1.00;;;;;;5059866;28;20033;-66
2023/05/20 02:22:35;;;;;;;9.60;4.00;;;12.60;1.00;;;;;;5043366;28;20292;-68
2023/05/20 02:25:02;;;;;;;9.45;3.65;;;12.50;1.00;;;;;;5059991;28;20035;-67
2023/05/20 02:27:28;;;;;;;8.40;3.75;;;12.40;1.00;;;;;;5059738;28;20067;-66
2023/05/20 02:29:54;;;;;;;6.53;3.53;;;12.30;1.00;;;;;;5059680;28;20464;-66
2023/05/20 02:32:22;;;;;;;9.13;4.00;;;12.40;1.00;;;;;;5060776;28;20029;-67
2023/05/20 02:34:48;;;;;;;6.97;3.97;;;12.50;1.00;;;;;;5059442;28;20044;-66
2023/05/20 02:37:18;;;;;;;5.20;3.58;;;12.40;1.00;;;;;;5043024;28;20029;-67
2023/05/20 02:39:43;;;;;;;9.18;3.80;;;12.30;1.00;;;;;;5059309;28;20124;-68
2023/05/20 02:42:09;;;;;;;7.72;4.03;;;12.40;1.00;;;;;;5059509;28;20121;-66
2023/05/20 02:44:35;;;;;;;5.75;3.97;;;12.20;1.00;;;;;;5059300;28;20098;-66
2023/05/20 02:47:01;;;;;;;7.35;4.20;;;12.20;1.00;;;;;;5060247;28;20029;-66
2023/05/20 02:49:27;;;;;;;7.65;4.28;;;12.40;1.00;;;;;;5060702;28;20103;-66
2023/05/20 02:51:54;;;;;;;8.60;4.47;;;12.40;1.00;;;;;;5059090;28;20123;-67
2023/05/20 02:54:20;;;;;;;7.50;4.10;;;12.30;1.00;;;;;;5042623;28;20052;-68
2023/05/20 02:56:46;;;;;;;7.85;4.07;;;12.20;1.00;;;;;;5042568;28;20412;-67
2023/05/20 02:59:12;;;;;;;7.65;4.40;;;12.20;1.00;;;;;;5058990;28;20029;-66
2023/05/20 03:01:39;;;;;;;10.57;4.40;;;12.20;1.00;;;;;;5042392;28;20044;-65
2023/05/20 03:04:05;;;;;;;8.90;4.35;;;12.10;1.00;;;;;;5042462;28;20029;-66
2023/05/20 03:06:31;;;;;;;10.80;4.40;;;12.20;1.00;;;;;;5059835;28;20029;-66
2023/05/20 03:08:58;;;;;;;7.90;4.57;;;12.30;1.00;;;;;;5059011;28;20297;-67
2023/05/20 03:11:25;;;;;;;9.52;4.43;;;12.20;1.00;;;;;;5042519;28;20090;-66
2023/05/20 03:13:51;;;;;;;7.90;4.55;;;12.20;1.00;;;;;;5042308;28;20300;-66
2023/05/20 03:16:17;;;;;;;7.72;4.43;;;12.20;1.00;;;;;;5059091;28;20372;-66
2023/05/20 03:18:45;;;;;;;9.23;4.20;;;12.10;1.00;;;;;;5025919;28;20029;-68
2023/05/20 03:21:11;;;;;;;7.28;4.38;;;12.20;1.00;;;;;;5058433;28;20033;-66
2023/05/20 03:23:37;;;;;;;8.98;4.88;;;12.20;1.00;;;;;;5025682;28;20037;-68
2023/05/20 03:26:05;;;;;;;9.65;4.70;;;12.20;1.00;;;;;;5042137;28;20033;-68
2023/05/20 03:28:32;;;;;;;8.80;4.55;;;12.20;1.00;;;;;;5042431;28;20032;-68
2023/05/20 03:31:01;;;;;;;7.80;4.72;;;12.10;1.00;;;;;;5058491;28;20032;-66
2023/05/20 03:33:32;;;;;;;8.90;5.30;;;12.00;1.00;;;;;;5058538;28;20351;-66
2023/05/20 03:35:58;;;;;;;8.60;4.68;;;11.90;1.00;;;;;;5059210;28;20044;-67
2023/05/20 03:38:24;;;;;;;10.93;4.75;;;11.90;1.00;;;;;;5025392;28;20396;-67
2023/05/20 03:40:50;;;;;;;10.68;5.13;;;12.00;1.00;;;;;;5058401;28;20036;-67
2023/05/20 03:43:16;;;;;;;7.40;4.22;;;12.00;1.00;;;;;;5041787;28;20029;-66
2023/05/20 03:45:42;;;;;;;10.10;4.95;;;12.00;1.00;;;;;;5059051;28;20025;-67
2023/05/20 03:48:08;;;;;;;9.13;4.88;;;11.90;1.00;;;;;;5058084;28;20037;-66
2023/05/20 03:50:35;;;;;;;8.52;4.53;;;11.90;1.00;;;;;;5041603;28;20094;-67
2023/05/20 03:53:01;;;;;;;10.90;5.38;;;11.90;1.00;;;;;;5058115;28;20036;-67
2023/05/20 03:55:32;;;;;;;11.10;4.80;;;12.00;1.00;;;;;;5058323;28;20107;-67
2023/05/20 03:58:00;;;;;;;7.18;4.88;;;12.00;1.00;;;;;;5041469;28;20291;-67
2023/05/20 04:00:26;;;;;;;9.85;5.25;;;12.10;1.00;;;;;;5059153;28;20056;-66
2023/05/20 04:02:52;;;;;;;9.77;4.72;;;11.90;1.00;;;;;;5024875;28;20343;-66
2023/05/20 04:05:18;;;;;;;8.60;4.97;;;11.80;1.00;;;;;;5057718;28;20048;-66
2023/05/20 04:07:45;;;;;;;12.35;5.60;;;11.90;1.00;;;;;;5057865;28;20091;-67
2023/05/20 04:10:12;;;;;;;9.57;5.25;;;11.90;1.00;;;;;;5041279;28;20033;-66
2023/05/20 04:12:38;;;;;;;8.27;5.10;;;11.80;1.00;;;;;;5057467;28;20037;-67
2023/05/20 04:15:05;;;;;;;11.05;5.03;;;11.90;1.00;;;;;;5057671;28;20124;-66
2023/05/20 04:17:47;;;;;;;8.50;5.72;;;11.90;1.00;;;;;;5057634;28;20033;-66
2023/05/20 04:20:13;;;;;;;11.10;5.35;;;12.00;1.00;;;;;;5057753;28;20120;-66
2023/05/20 04:22:39;;;;;;;7.57;5.07;;;11.90;1.00;;;;;;5058342;28;20075;-67
2023/05/20 04:25:06;;;;;;;11.45;4.90;;;12.10;1.00;;;;;;5057499;28;20116;-67
2023/05/20 04:27:32;;;;;;;8.98;5.38;;;12.10;1.00;;;;;;5057381;28;20025;-65
2023/05/20 04:30:01;;;;;;;10.70;4.95;;;11.90;1.00;;;;;;5057407;28;20029;-67
2023/05/20 04:32:27;;;;;;;8.32;5.15;;;12.00;1.00;;;;;;5040041;28;20040;-67
2023/05/20 04:34:54;;;;;;;7.22;4.70;;;11.90;1.00;;;;;;5058062;28;20029;-66
2023/05/20 04:37:21;;;;;;;8.20;4.82;;;11.90;1.00;;;;;;5024979;28;20025;-67
2023/05/20 04:39:48;;;;;;;10.18;5.47;;;12.00;1.00;;;;;;5057211;28;20036;-68
2023/05/20 04:42:17;;;;;;;9.55;5.05;;;11.90;1.30;;;;;;5057121;28;20055;-67
2023/05/20 04:44:44;;;;;;;9.35;4.80;;;11.80;7.10;;;;;;5057902;28;20033;-67
2023/05/20 04:47:11;;;;;;;9.73;5.13;;;11.80;9.70;;;;;;5057844;28;20032;-66
2023/05/20 04:49:38;;;;;;;7.68;4.88;;;11.90;7.80;;;;;;5057101;28;20378;-67
2023/05/20 04:52:09;;;;;;;11.45;5.50;;;11.90;4.50;;;;;;5024565;28;20049;-67
2023/05/20 04:54:35;;;;;;;7.30;4.68;;;12.00;2.90;;;;;;5056933;28;20025;-67
2023/05/20 04:57:01;;;;;;;11.10;5.25;;;11.90;5.40;;;;;;5056838;28;20091;-66
2023/05/20 04:59:27;;;;;;;8.00;4.72;;;11.90;7.10;;;;;;5057584;28;20439;-67
2023/05/20 05:01:53;;;;;;;12.77;5.13;;;12.00;6.30;;;;;;5057893;28;20028;-66
2023/05/20 05:04:21;;;;;;;7.05;4.78;;;12.10;3.20;;;;;;5056620;28;20187;-66
2023/05/20 05:06:48;;;;;;;11.57;5.57;;;12.10;3.60;;;;;;5056719;28;20405;-67
2023/05/20 05:09:14;;;;;;;9.45;4.97;;;12.10;2.80;;;;;;5056596;28;20392;-67
2023/05/20 05:11:42;;;;;;;8.02;4.93;;;12.10;5.40;;;;;;5056956;28;20301;-67
2023/05/20 05:14:07;;;;;;;8.65;4.97;;;12.20;1.00;;;;;;5040009;28;20032;-66
2023/05/20 05:16:34;;;;;;;9.02;4.55;;;12.10;1.50;;;;;;5056486;28;20033;-66
2023/05/20 05:19:03;;;;;;;10.60;5.53;;;12.20;1.80;;;;;;5057207;28;20036;-67
2023/05/20 05:21:31;;;;;;;12.27;5.55;;;12.30;1.00;;;;;;5056957;28;20037;-67
2023/05/20 05:23:57;;;;;;;8.32;4.93;;;12.40;1.00;;;;;;5056416;28;20336;-67
2023/05/20 05:26:23;;;;;;;11.13;5.15;;;12.60;1.00;;;;;;5056322;28;20126;-68
2023/05/20 05:28:49;;;;;;;10.48;4.82;;;12.70;1.00;;;;;;5056331;28;20319;-67
2023/05/20 05:31:15;;;;;;;8.57;5.03;;;12.80;1.00;;;;;;5056698;28;20044;-67
2023/05/20 05:33:41;;;;;;;8.95;4.90;;;12.80;1.00;;;;;;5039674;28;20406;-67
2023/05/20 05:36:07;;;;;;;8.88;5.63;;;12.90;1.00;;;;;;5057017;28;20029;-65
2023/05/20 05:38:33;;;;;;;8.40;5.35;;;12.90;1.00;;;;;;5039690;28;20045;-69
2023/05/20 05:40:59;;;;;;;7.95;4.78;;;13.00;1.00;;;;;;5056416;28;20060;-66
2023/05/20 05:43:25;;;;;;;6.30;4.38;;;13.00;1.00;;;;;;5056505;28;20032;-67
2023/05/20 05:45:52;;;;;;;9.95;5.15;;;13.00;1.00;;;;;;5040175;28;20308;-67
2023/05/20 05:48:19;;;;;;;7.63;4.88;;;13.00;1.00;;;;;;5039726;28;20040;-66
2023/05/20 05:50:45;;;;;;;8.27;4.90;;;13.20;1.00;;;;;;5039634;28;20025;-66
2023/05/20 05:53:19;;;;;;;9.98;4.68;;;13.30;1.00;;;;;;5056149;28;20029;-66
2023/05/20 05:55:47;;;;;;;8.00;4.75;;;13.20;1.00;;;;;;5055994;28;20044;-67
2023/05/20 05:58:14;;;;;;;7.47;4.72;;;13.30;1.00;;;;;;5055891;28;20102;-66
2023/05/20 06:00:41;;;;;;;8.82;4.80;;;13.60;1.00;;;;;;5039506;28;20029;-73
2023/05/20 06:03:06;;;;;;;8.48;4.65;;;13.70;1.00;;;;;;5039391;28;20032;-66
2023/05/20 06:05:36;;;;;;;9.18;4.80;;;13.60;1.00;;;;;;5056489;28;20117;-67
2023/05/20 06:08:02;;;;;;;8.00;4.82;;;13.70;1.00;;;;;;5055813;28;20036;-67
2023/05/20 06:10:29;;;;;;;7.45;4.97;;;13.80;1.00;;;;;;5055876;28;20434;-65
2023/05/20 06:12:55;;;;;;;10.05;5.30;;;13.70;1.00;;;;;;5055953;28;20029;-69
2023/05/20 06:15:21;;;;;;;10.32;4.70;;;13.80;1.00;;;;;;5055769;28;20029;-66
2023/05/20 06:17:47;;;;;;;7.43;4.47;;;13.90;1.00;;;;;;5039189;28;20033;-67
2023/05/20 06:20:14;;;;;;;8.48;4.80;;;13.90;1.00;;;;;;5039349;28;20032;-67
2023/05/20 06:22:40;;;;;;;7.75;4.55;;;14.00;1.00;;;;;;5056595;28;20094;-66
2023/05/20 06:25:06;;;;;;;11.25;4.70;;;14.00;1.00;;;;;;5055801;28;20052;-65
2023/05/20 06:27:35;;;;;;;5.47;4.15;;;14.00;1.00;;;;;;5055805;28;20059;-66
2023/05/20 06:30:00;;;;;;;7.93;4.78;;;14.20;1.00;;;;;;5056386;28;20064;-65
2023/05/20 06:32:28;;;;;;;6.55;4.18;;;14.10;1.00;;;;;;5039416;28;20037;-67
2023/05/20 06:34:57;;;;;;;5.38;4.38;;;14.20;1.00;;;;;;5023552;28;20033;-64
2023/05/20 06:37:23;;;;;;;12.02;4.53;;;14.50;1.00;;;;;;5056387;28;20094;-65
2023/05/20 06:39:52;;;;;;;6.97;4.72;;;14.60;1.00;;;;;;5056300;28;20033;-63
2023/05/20 06:42:21;;;;;;;9.30;4.22;;;14.70;1.00;;;;;;5055537;28;20072;-65
2023/05/20 06:45:02;;;;;;;6.05;4.10;;;14.60;1.00;;;;;;5055861;28;20041;-67
2023/05/20 06:48:00;;;;;;;5.95;3.88;;;14.80;1.00;;;;;;5039735;28;20056;-67
2023/05/20 06:50:27;;;;;;;9.20;4.32;;;14.90;1.00;;;;;;5055483;28;20025;-67
2023/05/20 06:52:53;;;;;;;11.75;4.53;;;15.10;1.00;;;;;;5055446;28;20040;-66
2023/05/20 06:55:20;;;;;;;10.10;4.70;;;15.20;1.00;;;;;;5056754;28;20056;-68
2023/05/20 06:57:46;;;;;;;5.72;3.78;;;15.30;1.00;;;;;;5059465;28;20381;-66
2023/05/20 07:00:17;;;;;;;6.18;4.00;;;15.30;1.00;;;;;;5026595;28;20328;-67
2023/05/20 07:02:43;;;;;;;7.82;4.07;;;15.40;1.00;;;;;;5042524;28;20112;-66
2023/05/20 07:05:11;;;;;;;7.40;4.20;;;15.60;1.00;;;;;;5026301;28;20049;-67
2023/05/20 07:07:38;;;;;;;5.25;4.05;;;15.70;1.00;;;;;;5058777;28;20052;-65
2023/05/20 07:10:05;;;;;;;4.55;3.75;;;15.80;1.00;;;;;;5058905;28;20033;-65
2023/05/20 07:12:31;;;;;;;8.38;4.45;;;16.00;1.00;;;;;;5075520;28;20111;-66
2023/05/20 07:14:57;;;;;;;6.15;3.50;;;16.10;1.00;;;;;;5058816;28;20041;-64
2023/05/20 07:17:24;;;;;;;5.60;3.90;;;16.00;1.00;;;;;;5058767;28;20043;-69
2023/05/20 07:19:51;;;;;;;7.57;3.90;;;16.20;1.00;;;;;;5059366;28;20021;-67
2023/05/20 07:22:17;;;;;;;6.28;3.65;;;16.40;1.00;;;;;;5058598;28;20413;-65
2023/05/20 07:24:52;;;;;;;4.32;3.92;;;16.60;1.00;;;;;;5058656;28;20112;-64
2023/05/20 07:27:18;;;;;;;8.05;4.05;;;16.30;1.00;;;;;;5058599;28;20071;-66
2023/05/20 07:29:44;;;;;;;4.80;3.60;;;16.40;1.00;;;;;;5058405;28;20037;-66
2023/05/20 07:32:10;;;;;;;7.93;3.88;;;16.70;1.00;;;;;;5058462;28;20274;-72
2023/05/20 07:34:37;;;;;;;4.15;3.60;;;16.60;1.00;;;;;;5041992;28;20049;-65
2023/05/20 07:37:03;;;;;;;5.00;3.40;;;16.70;1.00;;;;;;5059285;28;20079;-68
2023/05/20 07:39:28;;;;;;;5.97;3.15;;;16.90;1.00;;;;;;5058266;28;20028;-66
2023/05/20 07:41:54;;;;;;;7.22;3.65;;;17.10;1.00;;;;;;5058205;28;20028;-66
2023/05/20 07:44:21;;;;;;;4.72;3.40;;;17.20;1.00;;;;;;5058251;28;20029;-67
2023/05/20 07:46:49;;;;;;;9.73;3.70;;;17.20;1.00;;;;;;5058246;28;20361;-66
2023/05/20 07:49:15;;;;;;;4.80;3.20;;;17.40;1.00;;;;;;5041500;28;20071;-65
2023/05/20 07:51:41;;;;;;;5.32;3.30;;;17.40;1.00;;;;;;5058186;28;20041;-66
2023/05/20 07:54:07;;;;;;;5.00;2.92;;;17.60;1.00;;;;;;5058103;28;20116;-67
2023/05/20 07:56:33;;;;;;;7.97;3.30;;;17.50;99.90;;;;;;5041453;28;20082;-66
2023/05/20 07:59:02;;;;;;;4.15;2.85;;;17.40;1.00;;;;;;5059035;28;20036;-67
2023/05/20 08:01:30;;;;;;;3.83;3.05;;;17.40;99.90;;;;;;5041830;28;20041;-66
2023/05/20 08:03:57;;;;;;;8.50;3.15;;;17.50;99.90;;;;;;5057732;28;20114;-65
2023/05/20 08:06:24;;;;;;;8.02;3.03;;;17.60;99.90;;;;;;5056525;28;20057;-66
2023/05/20 08:08:54;;;;;;;6.90;3.20;;;17.70;99.90;;;;;;5057647;28;20037;-66
2023/05/20 08:11:25;;;;;;;4.45;2.97;;;17.80;99.90;;;;;;5057777;28;20059;-67
2023/05/20 08:13:51;;;;;;;4.45;2.63;;;17.80;64.30;;;;;;5058002;28;20397;-66
2023/05/20 08:16:17;;;;;;;7.00;2.88;;;18.00;1.00;;;;;;5057817;28;20351;-73
2023/05/20 08:18:44;;;;;;;4.00;2.60;;;18.00;1.00;;;;;;5057590;28;20028;-65
2023/05/20 08:21:12;;;;;;;4.07;2.70;;;18.00;1.00;;;;;;5057693;28;20061;-66
2023/05/20 08:23:39;;;;;;;4.72;2.90;;;18.10;49.30;;;;;;5041209;28;20118;-67
2023/05/20 08:26:05;;;;;;;5.07;2.47;;;18.20;1.00;;;;;;5057431;28;20057;-67
2023/05/20 08:28:33;;;;;;;6.57;2.60;;;18.00;1.00;;;;;;5040838;28;20041;-67
2023/05/20 08:31:01;;;;;;;6.60;2.40;;;18.10;1.00;;;;;;5057269;28;20262;-67
2023/05/20 08:33:28;;;;;;;10.75;2.60;;;18.20;1.00;;;;;;5057283;28;20025;-68
2023/05/20 08:35:54;;;;;;;7.68;2.58;;;18.10;99.90;;;;;;5058069;28;20266;-68
2023/05/20 08:38:21;;;;;;;6.00;2.30;;;18.20;99.90;;;;;;5057155;28;20103;-65
2023/05/20 08:40:55;;;;;;;3.05;2.05;;;18.10;1.00;;;;;;5040468;28;20193;-65
2023/05/20 08:43:23;;;;;;;5.78;2.40;;;18.20;1.00;;;;;;5040544;28;20336;-64
2023/05/20 08:45:51;;;;;;;3.92;2.60;;;18.30;1.00;;;;;;5056864;28;20033;-65
2023/05/20 08:48:19;;;;;;;4.70;2.60;;;18.30;1.00;;;;;;5056593;28;20052;-64
2023/05/20 08:50:49;;;;;;;2.75;2.25;;;18.40;1.00;;;;;;5056841;28;20037;-62
2023/05/20 08:53:15;;;;;;;5.80;2.30;;;18.70;1.00;;;;;;5058037;28;20024;-65
2023/05/20 08:55:56;;;;;;;4.95;2.40;;;18.80;1.00;;;;;;5040541;28;20040;-68
2023/05/20 08:58:23;;;;;;;4.50;2.60;;;18.90;99.90;;;;;;5056983;28;20036;-64
2023/05/20 09:00:51;;;;;;;4.65;2.53;;;18.90;99.90;;;;;;5056789;28;20029;-64
2023/05/20 09:03:19;;;;;;;3.75;2.20;;;19.00;99.90;;;;;;5057152;28;20037;-64
2023/05/20 09:05:46;;;;;;;3.58;1.90;;;19.00;1.00;;;;;;5073119;28;20052;-67
2023/05/20 09:08:12;;;;;;;4.35;2.25;;;19.00;1.00;;;;;;5056755;28;20102;-73
2023/05/20 09:10:40;;;;;;;3.60;2.22;;;19.10;1.00;;;;;;5057220;28;20401;-73
2023/05/20 09:13:07;;;;;;;4.57;2.33;;;19.20;99.90;;;;;;5056484;28;20024;-63
2023/05/20 09:15:34;;;;;;;5.18;2.20;;;19.20;1.00;;;;;;5056534;28;20035;-66
2023/05/20 09:18:01;;;;;;;2.35;1.75;;;19.20;1.00;;;;;;5056080;28;20037;-65
2023/05/20 09:20:30;;;;;;;4.70;2.40;;;19.40;1.00;;;;;;5057307;28;20025;-71
2023/05/20 09:23:05;;;;;;;8.32;1.92;;;19.30;2.70;;;;;;5056469;28;20354;-70
2023/05/20 09:25:31;;;;;;;4.32;2.25;;;19.30;1.00;;;;;;5056364;28;20029;-69
2023/05/20 09:27:57;;;;;;;4.20;2.50;;;19.30;1.00;;;;;;5056602;28;20029;-66
2023/05/20 09:30:23;;;;;;;5.63;2.13;;;19.50;99.90;;;;;;5023359;28;20040;-66
2023/05/20 09:32:57;;;;;;;2.45;2.17;;;19.50;11.90;;;;;;5056312;28;20024;-66
2023/05/20 09:35:24;;;;;;;4.10;2.38;;;19.20;71.60;;;;;;5057146;28;20021;-65
2023/05/20 09:37:54;;;;;;;5.13;2.30;;;19.30;99.90;;;;;;5039831;28;20052;-66
2023/05/20 09:40:26;;;;;;;5.60;2.50;;;19.40;99.90;;;;;;5056317;28;20385;-69
2023/05/20 09:43:03;;;;;;;3.67;2.33;;;19.50;1.00;;;;;;5056286;28;20365;-69
2023/05/20 09:45:29;;;;;;;5.82;2.50;;;19.50;1.00;;;;;;5056268;28;20095;-70
2023/05/20 09:47:56;;;;;;;3.63;2.00;;;19.40;99.90;;;;;;5056185;28;20304;-66
2023/05/20 09:50:23;;;;;;;5.70;1.90;;;19.70;1.00;;;;;;5040293;28;20017;-64
2023/05/20 09:52:51;;;;;;;4.20;2.20;;;19.70;77.10;;;;;;5072764;28;20127;-65
2023/05/20 09:55:19;;;;;;;5.78;2.50;;;19.70;1.00;;;;;;5056722;28;20017;-62
2023/05/20 09:57:46;;;;;;;3.38;2.03;;;19.70;1.00;;;;;;5056605;28;20040;-66
2023/05/20 10:00:16;;;;;;;4.03;2.20;;;19.80;1.00;;;;;;5040559;28;20415;-65
2023/05/20 10:02:51;;;;;;;3.65;2.47;;;19.90;1.00;;;;;;5055864;28;20127;-63
2023/05/20 10:05:46;;;;;;;3.53;2.20;;;19.90;1.00;;;;;;5056486;28;20064;-64
2023/05/20 10:08:38;;;;;;;3.90;2.10;;;20.10;1.00;;;;;;5055214;28;20037;-66
2023/05/20 10:11:18;;;;;;;3.87;2.20;;;20.20;99.90;;;;;;5057166;28;20025;-66
2023/05/20 10:14:18;;;;;;;3.83;2.05;;;20.20;8.40;;;;;;5056545;28;20021;-66
2023/05/20 10:17:08;;;;;;;6.68;2.13;;;20.30;1.00;;;;;;5056357;28;20125;-64
2023/05/20 10:19:35;;;;;;;16.13;2.53;;;20.20;1.00;;;;;;5056747;28;20033;-64
2023/05/20 10:22:05;;;;;;;3.30;2.10;;;20.50;1.00;;;;;;5056509;28;20095;-66
2023/05/20 10:24:33;;;;;;;6.78;2.65;;;20.20;99.90;;;;;;5055521;28;20037;-68
2023/05/20 10:27:02;;;;;;;4.50;1.88;;;20.10;1.00;;;;;;5038909;28;20025;-70
2023/05/20 10:29:28;;;;;;;5.63;2.03;;;20.40;1.00;;;;;;5056525;28;20045;-68
2023/05/20 10:31:54;;;;;;;5.57;2.20;;;20.40;1.00;;;;;;5059545;28;20025;-67
2023/05/20 10:34:23;;;;;;;4.05;2.08;;;20.70;99.90;;;;;;5043088;28;20033;-67
2023/05/20 10:36:52;;;;;;;4.00;1.70;;;20.90;1.00;;;;;;5060480;28;20354;-64
2023/05/20 10:39:18;;;;;;;2.25;1.73;;;21.00;1.00;;;;;;5059393;28;20059;-65
2023/05/20 10:41:44;;;;;;;5.53;1.90;;;20.90;1.00;;;;;;5060024;28;20024;-71
2023/05/20 10:44:10;;;;;;;4.95;2.50;;;20.80;1.00;;;;;;5042682;28;20036;-65
2023/05/20 10:46:36;;;;;;;5.03;2.17;;;20.90;1.00;;;;;;5059310;28;20094;-64
2023/05/20 10:49:03;;;;;;;4.05;2.30;;;21.30;1.00;;;;;;5059708;28;20041;-65
2023/05/20 10:51:31;;;;;;;3.53;2.13;;;21.30;1.00;;;;;;5059254;28;20363;-66
2023/05/20 10:53:57;;;;;;;3.03;2.05;;;21.00;99.90;;;;;;5059233;28;20092;-64
2023/05/20 10:56:25;;;;;;;3.75;1.77;;;21.00;99.90;;;;;;5042586;28;20037;-66
2023/05/20 10:58:52;;;;;;;2.55;2.20;;;21.80;1.00;;;;;;5058997;28;20083;-66
2023/05/20 11:01:24;;;;;;;4.05;2.47;;;22.60;1.00;;;;;;5025914;28;20286;-66
2023/05/20 11:03:51;;;;;;;4.03;2.37;;;23.00;1.00;;;;;;5059702;28;20065;-68
2023/05/20 11:06:17;;;;;;;3.00;1.90;;;24.50;99.90;;;;;;5060458;28;20049;-67
2023/05/20 11:08:44;;;;;;;3.63;2.45;;;24.30;1.00;;;;;;5058895;28;20088;-65
2023/05/20 11:11:14;;;;;;;4.13;2.30;;;24.40;1.00;;;;;;5059424;28;20036;-66
2023/05/20 11:13:40;;;;;;;6.53;2.10;;;25.20;1.00;;;;;;5058740;28;20033;-65
2023/05/20 11:16:06;;;;;;;5.10;2.15;;;23.30;1.00;;;;;;5042035;28;20021;-66
2023/05/20 11:18:32;;;;;;;3.30;2.00;;;23.90;1.00;;;;;;5042055;28;20064;-66
2023/05/20 11:20:59;;;;;;;5.55;2.08;;;24.50;1.00;;;;;;5058725;28;20064;-63
2023/05/20 11:23:26;;;;;;;5.43;2.38;;;24.80;1.00;;;;;;5058560;28;20043;-64
2023/05/20 11:25:53;;;;;;;3.30;2.10;;;25.20;1.00;;;;;;5059207;28;20350;-67
2023/05/20 11:28:22;;;;;;;10.55;2.17;;;25.50;1.00;;;;;;5058999;28;20052;-65
2023/05/20 11:30:50;;;;;;;3.17;1.88;;;26.10;1.00;;;;;;5041781;28;20029;-64
2023/05/20 11:33:22;;;;;;;3.22;1.80;;;26.30;1.00;;;;;;5058424;28;20040;-67
2023/05/20 11:35:50;;;;;;;2.88;1.70;;;27.30;99.90;;;;;;5059075;28;20037;-64
2023/05/20 11:38:16;;;;;;;4.75;1.92;;;27.80;99.90;;;;;;5059097;28;20044;-66
2023/05/20 11:40:46;;;;;;;2.80;1.90;;;27.80;99.90;;;;;;5058210;28;20075;-64
2023/05/20 11:43:13;;;;;;;5.05;2.22;;;27.20;99.90;;;;;;5059078;28;20273;-70
2023/05/20 11:45:44;;;;;;;3.28;1.85;;;26.70;99.90;;;;;;5059102;28;20121;-66
2023/05/20 11:48:11;;;;;;;2.53;1.80;;;26.30;99.90;;;;;;5041428;28;20040;-66
2023/05/20 11:50:41;;;;;;;3.95;1.80;;;26.00;99.90;;;;;;5059512;28;20024;-66
2023/05/20 11:53:09;;;;;;;6.63;2.33;;;26.80;99.90;;;;;;5058735;28;20029;-69
2023/05/20 11:55:46;;;;;;;4.68;1.80;;;27.40;99.90;;;;;;5058631;28;20029;-68
2023/05/20 11:58:15;;;;;;;4.85;2.10;;;27.00;99.90;;;;;;5057886;28;20096;-66
2023/05/20 12:00:41;;;;;;;3.90;2.13;;;28.50;99.90;;;;;;5059133;28;20040;-63
2023/05/20 12:03:06;;;;;;;3.50;2.00;;;26.30;99.90;;;;;;5057595;28;20384;-63
2023/05/20 12:05:32;;;;;;;4.20;2.10;;;25.90;99.90;;;;;;5024569;28;20167;-63
2023/05/20 12:07:58;;;;;;;2.90;2.03;;;26.30;99.90;;;;;;5057873;28;20044;-62
2023/05/20 12:10:24;;;;;;;6.90;1.95;;;26.40;99.90;;;;;;5058377;28;20410;-62
2023/05/20 12:12:50;;;;;;;6.43;1.70;;;28.00;99.90;;;;;;5024432;28;20021;-65
2023/05/20 12:15:15;;;;;;;1.85;1.70;;;28.50;99.90;;;;;;5057947;28;20128;-64
2023/05/20 12:17:48;;;;;;;4.28;2.13;;;29.60;99.90;;;;;;5057366;28;20021;-64
2023/05/20 12:20:16;;;;;;;2.72;2.00;;;28.70;99.90;;;;;;5057477;28;20079;-63
2023/05/20 12:22:44;;;;;;;3.55;2.10;;;28.10;99.90;;;;;;5058481;28;20111;-66
2023/05/20 12:25:18;;;;;;;2.30;1.73;;;28.00;99.90;;;;;;5040918;28;20029;-63
2023/05/20 12:27:48;;;;;;;2.40;2.20;;;28.30;99.90;;;;;;5041407;28;20059;-65
2023/05/20 12:30:16;;;;;;;3.40;2.00;;;29.20;99.90;;;;;;5058626;28;20080;-65
2023/05/20 12:32:42;;;;;;;3.47;2.13;;;28.80;99.90;;;;;;5057868;28;20033;-65
2023/05/20 12:35:12;;;;;;;4.50;2.03;;;29.70;99.90;;;;;;5057153;28;20024;-65
2023/05/20 12:37:40;;;;;;;4.20;2.10;;;28.40;99.90;;;;;;5057844;28;20043;-64
2023/05/20 12:40:07;;;;;;;2.47;2.10;;;27.50;99.90;;;;;;5057133;28;20086;-63
2023/05/20 12:42:40;;;;;;;4.20;1.95;;;26.50;99.90;;;;;;5057028;28;20123;-65
2023/05/20 12:45:08;;;;;;;3.47;1.85;;;26.80;99.90;;;;;;5057955;28;20094;-65
2023/05/20 12:47:35;;;;;;;2.90;2.40;;;27.30;99.90;;;;;;5057122;28;20081;-64
2023/05/20 12:50:02;;;;;;;4.45;2.40;;;27.00;99.90;;;;;;5057048;28;20106;-64
2023/05/20 12:52:48;;;;;;;4.82;2.42;;;26.90;99.90;;;;;;5056395;28;20052;-68
2023/05/20 12:55:23;;;;;;;3.45;1.98;;;27.00;99.90;;;;;;5072612;28;20025;-65